createdAt,value
2023-09-03T00:02:24.508Z,19.10
2023-09-03T00:04:51.507Z,19.20
2023-09-03T00:07:18.540Z,19.10
2023-09-03T00:09:45.542Z,19.00
2023-09-03T00:14:39.972Z,18.80
2023-09-03T00:17:07.002Z,20.50
2023-09-03T00:19:34.229Z,19.10
2023-09-03T00:22:02.890Z,19.00
2023-09-03T00:24:34.198Z,19.10
2023-09-03T00:27:01.439Z,19.00
2023-09-03T00:29:28.671Z,19.10
2023-09-03T00:31:56.861Z,18.90
2023-09-03T00:34:23.844Z,19.10
2023-09-03T00:36:50.898Z,18.80
2023-09-03T00:39:20.128Z,19.00
2023-09-03T00:41:47.505Z,18.90
2023-09-03T00:44:15.433Z,19.10
2023-09-03T00:46:43.980Z,18.70
2023-09-03T00:49:13.494Z,18.80
2023-09-03T00:51:41.000Z,18.80
2023-09-03T00:54:09.453Z,18.90
2023-09-03T00:56:36.946Z,18.70
2023-09-03T00:59:04.121Z,18.80
2023-09-03T01:01:31.816Z,19.40
2023-09-03T01:03:59.022Z,18.80
2023-09-03T01:06:26.453Z,18.80
2023-09-03T01:08:53.953Z,19.30
2023-09-03T01:11:48.281Z,20.80
2023-09-03T01:14:38.119Z,18.80
2023-09-03T01:17:36.214Z,18.80
2023-09-03T01:20:31.390Z,18.60
2023-09-03T01:23:10.326Z,18.70
2023-09-03T01:26:00.327Z,18.70
2023-09-03T01:28:39.964Z,17.80
2023-09-03T01:31:17.450Z,18.90
2023-09-03T01:33:46.925Z,18.70
2023-09-03T01:36:15.116Z,17.70
2023-09-03T01:38:42.388Z,18.40
2023-09-03T01:41:10.253Z,18.50
2023-09-03T01:43:37.466Z,18.60
2023-09-03T01:46:10.532Z,18.40
2023-09-03T01:48:56.704Z,19.50
2023-09-03T01:51:53.626Z,18.10
2023-09-03T01:54:32.263Z,18.50
2023-09-03T01:57:06.930Z,18.50
2023-09-03T01:59:44.682Z,18.00
2023-09-03T02:02:13.595Z,18.50
2023-09-03T02:04:40.992Z,18.30
2023-09-03T02:07:08.164Z,18.80
2023-09-03T02:09:35.714Z,19.90
2023-09-03T02:12:03.749Z,18.30
2023-09-03T02:14:30.738Z,18.40
2023-09-03T02:16:57.879Z,18.30
2023-09-03T02:19:25.219Z,18.90
2023-09-03T02:21:52.799Z,18.50
2023-09-03T02:24:20.112Z,17.30
2023-09-03T02:26:48.256Z,18.50
2023-09-03T02:29:15.657Z,18.40
2023-09-03T02:31:42.749Z,18.20
2023-09-03T02:34:15.151Z,18.20
2023-09-03T02:36:42.333Z,18.70
2023-09-03T02:39:10.138Z,18.50
2023-09-03T02:41:37.237Z,18.20
2023-09-03T02:44:04.408Z,18.10
2023-09-03T02:46:31.663Z,18.10
2023-09-03T02:49:00.043Z,18.20
2023-09-03T02:51:27.144Z,18.30
2023-09-03T02:53:56.105Z,18.10
2023-09-03T02:56:24.094Z,16.80
2023-09-03T02:58:52.158Z,18.10
2023-09-03T03:01:21.632Z,20.40
2023-09-03T03:03:49.532Z,18.20
2023-09-03T03:06:17.402Z,17.70
2023-09-03T03:08:45.059Z,18.00
2023-09-03T03:11:18.518Z,18.00
2023-09-03T03:14:03.513Z,18.00
2023-09-03T03:19:06.327Z,18.00
2023-09-03T03:21:34.993Z,18.00
2023-09-03T03:24:07.017Z,17.70
2023-09-03T03:26:39.400Z,18.30
2023-09-03T03:29:10.711Z,18.00
2023-09-03T03:31:44.226Z,17.90
2023-09-03T03:34:12.740Z,17.90
2023-09-03T03:39:08.225Z,17.90
2023-09-03T03:41:37.678Z,17.90
2023-09-03T03:44:05.829Z,17.90
2023-09-03T03:46:32.825Z,17.90
2023-09-03T03:49:01.097Z,17.80
2023-09-03T03:51:28.399Z,17.70
2023-09-03T03:53:56.503Z,17.70
2023-09-03T03:56:23.596Z,16.80
2023-09-03T04:01:24.581Z,17.60
2023-09-03T04:03:55.908Z,17.70
2023-09-03T04:06:23.603Z,17.70
2023-09-03T04:08:50.604Z,17.70
2023-09-03T04:11:21.721Z,17.80
2023-09-03T04:13:48.857Z,17.60
2023-09-03T04:16:18.973Z,17.40
2023-09-03T04:18:50.207Z,17.50
2023-09-03T04:21:17.847Z,17.70
2023-09-03T04:23:45.271Z,17.30
2023-09-03T04:26:12.458Z,17.50
2023-09-03T04:28:44.663Z,17.60
2023-09-03T04:31:13.237Z,17.80
2023-09-03T04:33:41.660Z,17.70
2023-09-03T04:36:11.321Z,17.80
2023-09-03T04:38:38.567Z,17.60
2023-09-03T04:41:06.845Z,17.40
2023-09-03T04:43:48.288Z,17.60
2023-09-03T04:46:20.071Z,17.60
2023-09-03T04:48:47.265Z,17.50
2023-09-03T04:51:14.641Z,17.70
2023-09-03T04:56:13.696Z,17.60
2023-09-03T04:58:42.404Z,17.40
2023-09-03T05:01:17.156Z,16.60
2023-09-03T05:03:47.016Z,17.70
2023-09-03T05:06:17.349Z,17.50
2023-09-03T05:08:46.672Z,17.40
2023-09-03T05:11:16.180Z,16.30
2023-09-03T05:13:45.153Z,16.80
2023-09-03T05:16:13.446Z,16.90
2023-09-03T05:21:11.206Z,17.20
2023-09-03T05:26:06.979Z,17.20
2023-09-03T05:28:36.579Z,18.10
2023-09-03T05:31:03.712Z,17.30
2023-09-03T05:33:32.102Z,17.10
2023-09-03T05:35:59.471Z,17.50
2023-09-03T05:38:26.604Z,17.40
2023-09-03T05:40:54.207Z,17.30
2023-09-03T05:43:24.230Z,17.40
2023-09-03T05:45:54.266Z,17.20
2023-09-03T05:48:21.748Z,16.70
2023-09-03T05:50:49.149Z,17.30
2023-09-03T05:53:16.854Z,17.40
2023-09-03T05:55:43.933Z,17.30
2023-09-03T05:58:11.013Z,17.30
2023-09-03T06:00:44.217Z,17.30
2023-09-03T06:03:12.199Z,17.40
2023-09-03T06:05:39.373Z,17.40
2023-09-03T06:08:07.553Z,17.30
2023-09-03T06:10:37.810Z,16.30
2023-09-03T06:13:05.065Z,16.70
2023-09-03T06:15:32.131Z,17.40
2023-09-03T06:18:00.775Z,17.40
2023-09-03T06:20:27.880Z,17.10
2023-09-03T06:22:54.871Z,17.40
2023-09-03T06:25:21.924Z,17.20
2023-09-03T06:27:48.891Z,17.80
2023-09-03T06:30:15.864Z,17.50
2023-09-03T06:32:43.313Z,18.20
2023-09-03T06:35:10.335Z,18.80
2023-09-03T06:37:37.342Z,17.50
2023-09-03T06:40:04.835Z,18.00
2023-09-03T06:42:31.896Z,17.40
2023-09-03T06:44:58.911Z,17.20
2023-09-03T06:47:26.057Z,17.30
2023-09-03T06:49:53.405Z,17.70
2023-09-03T06:52:21.013Z,17.40
2023-09-03T06:54:48.497Z,16.70
2023-09-03T06:57:28.364Z,17.30
2023-09-03T06:59:56.997Z,17.50
2023-09-03T07:02:25.147Z,17.40
2023-09-03T07:04:52.730Z,17.40
2023-09-03T07:07:19.760Z,17.30
2023-09-03T07:09:46.846Z,17.60
2023-09-03T07:12:14.290Z,16.90
2023-09-03T07:14:41.297Z,17.50
2023-09-03T07:17:08.269Z,17.60
2023-09-03T07:19:35.263Z,17.40
2023-09-03T07:22:02.323Z,18.80
2023-09-03T07:24:29.292Z,17.10
2023-09-03T07:26:56.343Z,17.40
2023-09-03T07:29:23.353Z,17.70
2023-09-03T07:31:50.396Z,17.60
2023-09-03T07:34:17.719Z,17.50
2023-09-03T07:36:44.716Z,17.60
2023-09-03T07:39:11.898Z,17.90
2023-09-03T07:41:39.930Z,17.70
2023-09-03T07:44:08.459Z,17.50
2023-09-03T07:46:35.937Z,17.60
2023-09-03T07:49:03.052Z,17.80
2023-09-03T07:51:30.407Z,17.70
2023-09-03T07:53:57.641Z,18.30
2023-09-03T07:56:24.801Z,17.70
2023-09-03T07:58:51.788Z,17.70
2023-09-03T08:03:48.162Z,17.70
2023-09-03T08:06:15.379Z,17.40
2023-09-03T08:08:42.583Z,17.70
2023-09-03T08:11:09.539Z,17.50
2023-09-03T08:16:04.396Z,18.10
2023-09-03T08:18:31.542Z,16.80
2023-09-03T08:20:59.187Z,17.90
2023-09-03T08:23:26.418Z,17.90
2023-09-03T08:25:53.402Z,17.80
2023-09-03T08:28:20.373Z,18.10
2023-09-03T08:33:15.551Z,17.80
2023-09-03T08:35:42.696Z,17.90
2023-09-03T08:38:10.301Z,18.00
2023-09-03T08:40:37.888Z,18.00
2023-09-03T08:43:08.266Z,18.10
2023-09-03T08:45:42.968Z,17.70
2023-09-03T08:48:11.226Z,16.80
2023-09-03T08:50:38.355Z,18.10
2023-09-03T08:53:05.538Z,18.20
2023-09-03T08:55:33.898Z,18.10
2023-09-03T08:58:02.488Z,18.40
2023-09-03T09:00:30.009Z,18.40
2023-09-03T09:03:01.665Z,18.40
2023-09-03T09:05:28.949Z,18.40
2023-09-03T09:07:56.516Z,18.60
2023-09-03T09:10:29.629Z,18.40
2023-09-03T09:13:05.469Z,18.50
2023-09-03T09:15:32.693Z,18.60
2023-09-03T09:20:27.336Z,18.60
2023-09-03T09:22:54.321Z,18.50
2023-09-03T09:25:28.219Z,18.60
2023-09-03T09:27:57.539Z,18.90
2023-09-03T09:30:26.677Z,19.40
2023-09-03T09:33:08.611Z,19.10
2023-09-03T09:35:36.347Z,19.00
2023-09-03T09:38:09.018Z,19.60
2023-09-03T09:40:37.618Z,19.70
2023-09-03T09:43:08.621Z,20.00
2023-09-03T09:45:51.723Z,19.00
2023-09-03T09:48:19.383Z,20.00
2023-09-03T09:50:48.967Z,20.20
2023-09-03T09:53:28.839Z,19.90
2023-09-03T09:56:10.901Z,19.60
2023-09-03T09:58:42.265Z,19.20
2023-09-03T10:01:10.391Z,19.20
2023-09-03T10:03:46.723Z,19.10
2023-09-03T10:06:19.291Z,19.70
2023-09-03T10:08:50.749Z,19.90
2023-09-03T10:11:20.441Z,19.80
2023-09-03T10:13:49.543Z,19.80
2023-09-03T10:16:21.002Z,19.90
2023-09-03T10:18:49.902Z,19.10
2023-09-03T10:21:36.842Z,19.50
2023-09-03T10:24:14.752Z,19.20
2023-09-03T10:26:50.496Z,19.30
2023-09-03T10:29:21.194Z,20.00
2023-09-03T10:31:51.278Z,20.30
2023-09-03T10:34:18.545Z,19.90
2023-09-03T10:37:05.684Z,19.60
2023-09-03T10:39:36.950Z,19.60
2023-09-03T10:42:18.732Z,20.40
2023-09-03T10:45:01.041Z,20.80
2023-09-03T10:47:28.864Z,21.20
2023-09-03T10:49:56.744Z,21.10
2023-09-03T10:52:31.926Z,20.70
2023-09-03T10:55:20.379Z,20.60
2023-09-03T10:58:17.212Z,20.90
2023-09-03T11:01:23.997Z,21.30
2023-09-03T11:03:55.927Z,21.20
2023-09-03T11:06:25.053Z,21.30
2023-09-03T11:09:07.759Z,21.40
2023-09-03T11:11:36.426Z,21.00
2023-09-03T11:14:04.212Z,20.50
2023-09-03T11:16:37.226Z,20.80
2023-09-03T11:19:08.370Z,20.60
2023-09-03T11:21:37.192Z,20.90
2023-09-03T11:24:07.025Z,21.60
2023-09-03T11:26:35.385Z,21.80
2023-09-03T11:29:03.877Z,22.50
2023-09-03T11:31:31.596Z,23.00
2023-09-03T11:38:56.411Z,21.40
2023-09-03T11:41:23.763Z,22.00
2023-09-03T11:43:50.949Z,22.20
2023-09-03T11:46:19.391Z,21.80
2023-09-03T11:48:57.196Z,22.80
2023-09-03T11:51:28.756Z,21.60
2023-09-03T11:53:57.846Z,21.40
2023-09-03T11:56:26.926Z,21.40
2023-09-03T11:58:59.067Z,21.40
2023-09-03T12:01:26.368Z,21.20
2023-09-03T12:03:54.023Z,21.30
2023-09-03T12:06:22.141Z,21.20
2023-09-03T12:08:49.614Z,21.50
2023-09-03T12:11:16.614Z,22.00
2023-09-03T12:16:17.450Z,22.20
2023-09-03T12:19:00.239Z,22.60
2023-09-03T12:21:37.899Z,24.30
2023-09-03T12:24:09.095Z,24.60
2023-09-03T12:26:38.095Z,24.40
2023-09-03T12:29:19.782Z,23.10
2023-09-03T12:31:46.894Z,23.40
2023-09-03T12:34:18.975Z,23.40
2023-09-03T12:36:58.006Z,23.00
2023-09-03T12:39:32.548Z,23.50
2023-09-03T12:42:00.841Z,24.70
2023-09-03T12:44:28.197Z,25.30
2023-09-03T12:46:56.390Z,24.10
2023-09-03T12:49:23.782Z,25.10
2023-09-03T12:51:50.882Z,25.10
2023-09-03T12:54:17.888Z,25.20
2023-09-03T12:56:45.051Z,24.70
2023-09-03T12:59:12.110Z,23.60
2023-09-03T13:01:40.978Z,23.00
2023-09-03T13:04:15.536Z,23.60
2023-09-03T13:06:43.145Z,23.90
2023-09-03T13:09:11.297Z,23.70
2023-09-03T13:11:38.809Z,23.20
2023-09-03T13:14:06.420Z,22.90
2023-09-03T13:16:34.247Z,23.30
2023-09-03T13:19:01.861Z,23.90
2023-09-03T13:21:29.149Z,25.10
2023-09-03T13:23:56.294Z,23.40
2023-09-03T13:26:23.238Z,23.20
2023-09-03T13:28:50.230Z,24.10
2023-09-03T13:31:22.636Z,23.70
2023-09-03T13:33:49.745Z,23.90
2023-09-03T13:36:18.332Z,24.30
2023-09-03T13:38:46.376Z,24.00
2023-09-03T13:41:13.490Z,24.00
2023-09-03T13:43:43.164Z,23.60
2023-09-03T13:46:10.464Z,23.90
2023-09-03T13:48:37.877Z,23.70
2023-09-03T13:51:12.519Z,23.80
2023-09-03T13:53:40.454Z,23.70
2023-09-03T13:56:08.476Z,23.40
2023-09-03T13:58:36.287Z,23.30
2023-09-03T14:01:10.476Z,23.10
2023-09-03T14:03:38.487Z,23.50
2023-09-03T14:06:09.107Z,23.50
2023-09-03T14:08:37.521Z,23.50
2023-09-03T14:11:04.732Z,23.50
2023-09-03T14:13:32.420Z,24.30
2023-09-03T14:16:00.224Z,23.40
2023-09-03T14:18:28.884Z,23.80
2023-09-03T14:20:56.186Z,23.80
2023-09-03T14:23:24.914Z,23.60
2023-09-03T14:25:52.355Z,23.30
2023-09-03T14:28:19.486Z,23.40
2023-09-03T14:33:14.081Z,23.60
2023-09-03T14:35:41.122Z,23.80
2023-09-03T14:38:09.001Z,23.90
2023-09-03T14:40:36.728Z,24.50
2023-09-03T14:45:32.140Z,24.30
2023-09-03T14:50:26.659Z,23.40
2023-09-03T14:52:53.648Z,23.60
2023-09-03T14:55:23.903Z,24.40
2023-09-03T15:00:21.401Z,23.70
2023-09-03T15:02:48.407Z,23.70
2023-09-03T15:05:15.506Z,23.60
2023-09-03T15:07:42.490Z,23.10
2023-09-03T15:10:09.830Z,23.20
2023-09-03T15:12:36.845Z,23.10
2023-09-03T15:15:05.188Z,23.30
2023-09-03T15:17:32.540Z,23.30
2023-09-03T15:20:00.831Z,23.40
2023-09-03T15:24:55.231Z,23.80
2023-09-03T15:27:22.181Z,23.30
2023-09-03T15:29:49.163Z,23.10
2023-09-03T15:32:16.157Z,23.70
2023-09-03T15:34:43.677Z,23.20
2023-09-03T15:37:10.687Z,23.60
2023-09-03T15:39:38.620Z,23.00
2023-09-03T15:42:05.758Z,23.20
2023-09-03T15:44:32.826Z,22.90
2023-09-03T15:46:59.863Z,23.20
2023-09-03T15:49:27.015Z,23.20
2023-09-03T15:51:54.090Z,23.10
2023-09-03T15:54:25.469Z,23.30
2023-09-03T15:56:53.792Z,25.60
2023-09-03T15:59:24.173Z,23.20
2023-09-03T16:01:54.373Z,23.20
2023-09-03T16:04:22.101Z,25.20
2023-09-03T16:06:49.088Z,23.00
2023-09-03T16:09:16.207Z,22.90
2023-09-03T16:11:43.285Z,22.90
2023-09-03T16:14:10.389Z,23.20
2023-09-03T16:16:37.403Z,22.90
2023-09-03T16:19:04.455Z,23.00
2023-09-03T16:21:33.447Z,22.90
2023-09-03T16:24:00.496Z,23.00
2023-09-03T16:26:27.500Z,23.10
2023-09-03T16:28:54.544Z,23.00
2023-09-03T16:31:21.750Z,22.90
2023-09-03T16:36:16.432Z,22.90
2023-09-03T16:38:43.450Z,22.80
2023-09-03T16:41:10.504Z,22.10
2023-09-03T16:43:40.416Z,22.30
2023-09-03T16:46:10.152Z,23.60
2023-09-03T16:48:37.171Z,22.50
2023-09-03T16:51:04.162Z,23.10
2023-09-03T16:53:31.133Z,22.90
2023-09-03T16:55:58.241Z,24.30
2023-09-03T16:58:25.280Z,23.30
2023-09-03T17:00:52.969Z,22.90
2023-09-03T17:03:20.875Z,22.80
2023-09-03T17:05:48.369Z,23.00
2023-09-03T17:08:15.416Z,22.90
2023-09-03T17:10:42.445Z,22.90
2023-09-03T17:13:09.507Z,24.30
2023-09-03T17:15:43.112Z,22.70
2023-09-03T17:18:10.704Z,22.70
2023-09-03T17:20:43.904Z,22.90
2023-09-03T17:25:39.321Z,22.90
2023-09-03T17:28:07.086Z,23.20
2023-09-03T17:30:34.458Z,22.90
2023-09-03T17:33:01.496Z,24.30
2023-09-03T17:35:28.528Z,24.40
2023-09-03T17:37:55.504Z,22.90
2023-09-03T17:40:22.567Z,22.90
2023-09-03T17:42:49.516Z,23.10
2023-09-03T17:45:16.531Z,22.80
2023-09-03T17:47:43.987Z,23.00
2023-09-03T17:50:11.312Z,22.80
2023-09-03T17:52:38.412Z,21.70
2023-09-03T17:55:06.114Z,22.80
2023-09-03T17:57:34.905Z,23.50
2023-09-03T18:02:39.999Z,22.40
2023-09-03T18:05:07.614Z,22.40
2023-09-03T18:07:34.841Z,22.70
2023-09-03T18:10:02.084Z,22.60
2023-09-03T18:12:30.420Z,22.20
2023-09-03T18:21:18.898Z,22.10
2023-09-03T18:23:46.539Z,21.60
2023-09-03T18:26:13.688Z,22.10
2023-09-03T18:28:45.051Z,21.80
2023-09-03T18:31:14.346Z,21.90
2023-09-03T18:33:41.608Z,22.00
2023-09-03T18:36:08.828Z,22.10
2023-09-03T18:38:36.088Z,21.80
2023-09-03T18:41:03.556Z,22.40
2023-09-03T18:43:30.540Z,21.90
2023-09-03T18:46:00.902Z,22.00
2023-09-03T18:54:20.914Z,21.60
2023-09-03T18:56:48.724Z,21.20
2023-09-03T18:59:17.699Z,21.80
2023-09-03T19:01:44.870Z,21.80
2023-09-03T19:06:41.452Z,21.70
2023-09-03T19:09:08.452Z,21.60
2023-09-03T19:11:35.610Z,21.50
2023-09-03T19:14:04.093Z,21.10
2023-09-03T19:16:31.768Z,21.60
2023-09-03T19:21:27.168Z,21.50
2023-09-03T19:23:54.125Z,21.50
2023-09-03T19:26:21.192Z,21.90
2023-09-03T19:28:49.851Z,21.50
2023-09-03T19:31:17.077Z,21.40
2023-09-03T19:33:44.411Z,21.30
2023-09-03T19:36:12.390Z,21.40
2023-09-03T19:38:39.859Z,21.40
2023-09-03T19:41:07.126Z,21.20
2023-09-03T19:46:02.660Z,21.40
2023-09-03T19:48:35.237Z,21.30
2023-09-03T19:51:02.992Z,21.10
2023-09-03T19:53:31.991Z,21.10
2023-09-03T19:56:06.897Z,21.10
2023-09-03T19:58:34.601Z,21.30
2023-09-03T20:01:06.315Z,21.30
2023-09-03T20:03:34.265Z,21.10
2023-09-03T20:06:04.586Z,21.10
2023-09-03T20:08:32.524Z,20.90
2023-09-03T20:11:04.593Z,20.90
2023-09-03T20:13:32.751Z,20.90
2023-09-03T20:16:01.682Z,21.10
2023-09-03T20:18:29.437Z,21.10
2023-09-03T20:20:59.169Z,20.90
2023-09-03T20:23:26.398Z,20.70
2023-09-03T20:26:06.103Z,20.90
2023-09-03T20:28:45.780Z,20.60
2023-09-03T20:31:15.865Z,21.40
2023-09-03T20:33:43.906Z,20.90
2023-09-03T20:36:11.385Z,20.60
2023-09-03T20:38:38.768Z,20.60
2023-09-03T20:41:05.882Z,20.60
2023-09-03T20:43:33.257Z,20.30
2023-09-03T20:46:01.016Z,19.80
2023-09-03T20:51:01.189Z,20.50
2023-09-03T20:53:28.276Z,20.50
2023-09-03T20:55:56.464Z,20.40
2023-09-03T20:58:24.748Z,21.20
2023-09-03T21:09:39.361Z,20.70
2023-09-03T21:12:06.803Z,20.60
2023-09-03T21:14:34.127Z,21.40
2023-09-03T21:17:01.350Z,20.30
2023-09-03T21:19:28.508Z,20.20
2023-09-03T21:24:23.285Z,20.40
2023-09-03T21:26:50.478Z,20.30
2023-09-03T21:29:20.207Z,19.40
2023-09-03T21:31:47.322Z,20.40
2023-09-03T21:34:14.653Z,20.10
2023-09-03T21:36:41.835Z,20.20
2023-09-03T21:42:18.615Z,20.00
2023-09-03T21:44:45.711Z,20.10
2023-09-03T21:49:41.344Z,20.20
2023-09-03T21:52:08.413Z,20.00
2023-09-03T21:54:51.241Z,19.70
2023-09-03T21:57:23.003Z,20.10
2023-09-03T21:59:50.044Z,20.00
2023-09-03T22:02:17.381Z,19.90
2023-09-03T22:07:12.062Z,19.90
2023-09-03T22:12:28.361Z,20.20
2023-09-03T22:14:55.954Z,21.20
2023-09-03T22:17:25.549Z,19.70
2023-09-03T22:19:52.733Z,19.90
2023-09-03T22:22:22.287Z,19.80
2023-09-03T22:24:49.576Z,19.70
2023-09-03T22:27:16.678Z,19.10
2023-09-03T22:29:44.561Z,19.70
2023-09-03T22:32:11.667Z,19.90
2023-09-03T22:34:39.029Z,19.70
2023-09-03T22:44:30.331Z,19.60
2023-09-03T22:46:58.051Z,19.60
2023-09-03T22:49:25.408Z,19.20
2023-09-03T22:51:52.770Z,19.50
2023-09-03T22:54:20.471Z,18.50
2023-09-03T22:56:47.688Z,19.40
2023-09-03T22:59:14.869Z,19.50
2023-09-03T23:01:42.166Z,18.80
2023-09-03T23:04:09.642Z,19.00
2023-09-03T23:06:36.714Z,19.50
2023-09-03T23:09:03.821Z,19.40
2023-09-03T23:11:31.798Z,19.40
2023-09-03T23:13:58.789Z,19.20
2023-09-03T23:16:25.825Z,19.20
2023-09-03T23:18:52.865Z,19.20
2023-09-03T23:21:20.158Z,19.10
2023-09-03T23:23:47.173Z,19.20
2023-09-03T23:26:16.870Z,20.70
2023-09-03T23:28:43.903Z,19.40
2023-09-03T23:31:11.015Z,19.80
2023-09-03T23:33:38.102Z,19.10
2023-09-03T23:36:05.406Z,19.10
2023-09-03T23:38:33.833Z,19.10
2023-09-03T23:41:00.895Z,19.20
2023-09-03T23:43:27.852Z,19.10
2023-09-03T23:45:54.831Z,19.10
2023-09-03T23:48:22.225Z,19.00
2023-09-03T23:50:49.538Z,19.70
2023-09-03T23:53:16.501Z,19.00
2023-09-03T23:55:43.527Z,19.10
2023-09-03T23:58:10.642Z,18.80
